Terminal Aerodrome Forecast
Issued by NWS

Home | Current Version | Previous Version | Graphics & Text | Print | Product List | Glossary On
Versions: 1 2 3 4 5 6 7 8 9 10 11 12 13 14 15
000
FTUS43 KMPX 291507 AAA
TAFRNH
TAF AMD
KRNH 291507Z 2915/3012 22016G25KT P6SM SCT015 BKN025
     FM291800 28024G33KT 6SM -RA SCT015 OVC025
     FM292200 30026G35KT P6SM FEW100
     FM300000 30018G25KT P6SM SKC
     FM300200 28013KT P6SM SKC=

USA.gov is the U.S. government's official web portal to all federal, state and local government web resources and services.